sensor_id;sensor_type;location;lat;lon;timestamp;pressure;altitude;pressure_sealevel;temperature
61189;BMP280;47054;39.716;2.904;2023-08-21T00:02:16;100616.50;;;31.32
61189;BMP280;47054;39.716;2.904;2023-08-21T00:05:00;100608.41;;;31.29
61189;BMP280;47054;39.716;2.904;2023-08-21T00:07:45;100613.59;;;31.27
61189;BMP280;47054;39.716;2.904;2023-08-21T00:10:30;100600.53;;;31.22
61189;BMP280;47054;39.716;2.904;2023-08-21T00:13:17;100600.03;;;31.23
61189;BMP280;47054;39.716;2.904;2023-08-21T00:16:03;100598.97;;;31.21
61189;BMP280;47054;39.716;2.904;2023-08-21T00:18:48;100606.47;;;31.20
61189;BMP280;47054;39.716;2.904;2023-08-21T00:21:32;100596.69;;;31.19
61189;BMP280;47054;39.716;2.904;2023-08-21T00:24:17;100586.66;;;31.16
61189;BMP280;47054;39.716;2.904;2023-08-21T00:27:01;100596.56;;;31.14
61189;BMP280;47054;39.716;2.904;2023-08-21T00:29:47;100597.34;;;31.14
61189;BMP280;47054;39.716;2.904;2023-08-21T00:32:32;100588.97;;;31.09
61189;BMP280;47054;39.716;2.904;2023-08-21T00:35:17;100598.53;;;31.04
61189;BMP280;47054;39.716;2.904;2023-08-21T00:38:01;100597.19;;;31.00
61189;BMP280;47054;39.716;2.904;2023-08-21T00:40:46;100593.53;;;30.94
61189;BMP280;47054;39.716;2.904;2023-08-21T00:43:31;100592.78;;;30.84
61189;BMP280;47054;39.716;2.904;2023-08-21T00:46:15;100597.03;;;30.76
61189;BMP280;47054;39.716;2.904;2023-08-21T00:49:01;100599.78;;;30.67
61189;BMP280;47054;39.716;2.904;2023-08-21T00:51:48;100591.38;;;30.61
61189;BMP280;47054;39.716;2.904;2023-08-21T00:54:34;100586.19;;;30.54
61189;BMP280;47054;39.716;2.904;2023-08-21T00:57:20;100582.09;;;30.50
61189;BMP280;47054;39.716;2.904;2023-08-21T01:00:05;100582.97;;;30.47
61189;BMP280;47054;39.716;2.904;2023-08-21T01:02:50;100578.75;;;30.46
61189;BMP280;47054;39.716;2.904;2023-08-21T01:05:35;100575.84;;;30.40
61189;BMP280;47054;39.716;2.904;2023-08-21T01:17:18;100563.97;;;30.43
61189;BMP280;47054;39.716;2.904;2023-08-21T01:20:07;100575.88;;;30.49
61189;BMP280;47054;39.716;2.904;2023-08-21T01:22:53;100571.63;;;30.48
61189;BMP280;47054;39.716;2.904;2023-08-21T01:25:38;100566.44;;;30.50
61189;BMP280;47054;39.716;2.904;2023-08-21T01:28:22;100567.97;;;30.51
61189;BMP280;47054;39.716;2.904;2023-08-21T01:31:10;100553.66;;;30.47
61189;BMP280;47054;39.716;2.904;2023-08-21T01:33:59;100563.56;;;30.54
61189;BMP280;47054;39.716;2.904;2023-08-21T01:36:45;100561.72;;;30.51
61189;BMP280;47054;39.716;2.904;2023-08-21T01:39:30;100557.47;;;30.50
61189;BMP280;47054;39.716;2.904;2023-08-21T01:42:15;100550.50;;;30.49
61189;BMP280;47054;39.716;2.904;2023-08-21T01:44:59;100559.44;;;30.49
61189;BMP280;47054;39.716;2.904;2023-08-21T01:47:44;100561.44;;;30.49
61189;BMP280;47054;39.716;2.904;2023-08-21T01:50:28;100558.69;;;30.49
61189;BMP280;47054;39.716;2.904;2023-08-21T01:53:13;100549.56;;;30.43
61189;BMP280;47054;39.716;2.904;2023-08-21T01:55:58;100552.88;;;30.47
61189;BMP280;47054;39.716;2.904;2023-08-21T01:58:42;100563.41;;;30.48
61189;BMP280;47054;39.716;2.904;2023-08-21T02:01:26;100550.28;;;30.43
61189;BMP280;47054;39.716;2.904;2023-08-21T02:04:11;100546.84;;;30.43
61189;BMP280;47054;39.716;2.904;2023-08-21T02:06:55;100559.13;;;30.47
61189;BMP280;47054;39.716;2.904;2023-08-21T02:09:40;100559.91;;;30.48
61189;BMP280;47054;39.716;2.904;2023-08-21T02:12:25;100550.13;;;30.47
61189;BMP280;47054;39.716;2.904;2023-08-21T02:15:10;100557.63;;;30.46
61189;BMP280;47054;39.716;2.904;2023-08-21T02:17:54;100554.13;;;30.46
61189;BMP280;47054;39.716;2.904;2023-08-21T02:20:39;100554.88;;;30.46
61189;BMP280;47054;39.716;2.904;2023-08-21T02:23:23;100543.19;;;30.46
61189;BMP280;47054;39.716;2.904;2023-08-21T02:26:08;100549.84;;;30.45
61189;BMP280;47054;39.716;2.904;2023-08-21T02:28:53;100548.31;;;30.44
61189;BMP280;47054;39.716;2.904;2023-08-21T02:31:37;100553.03;;;30.43
61189;BMP280;47054;39.716;2.904;2023-08-21T02:34:22;100551.22;;;30.40
61189;BMP280;47054;39.716;2.904;2023-08-21T02:37:06;100558.66;;;30.40
61189;BMP280;47054;39.716;2.904;2023-08-21T02:39:51;100560.34;;;30.37
61189;BMP280;47054;39.716;2.904;2023-08-21T02:42:35;100558.81;;;30.36
61189;BMP280;47054;39.716;2.904;2023-08-21T02:45:21;100559.69;;;30.33
61189;BMP280;47054;39.716;2.904;2023-08-21T02:48:06;100567.91;;;30.33
61189;BMP280;47054;39.716;2.904;2023-08-21T02:50:52;100550.56;;;30.27
61189;BMP280;47054;39.716;2.904;2023-08-21T02:53:36;100555.13;;;30.30
61189;BMP280;47054;39.716;2.904;2023-08-21T02:56:21;100556.41;;;30.29
61189;BMP280;47054;39.716;2.904;2023-08-21T02:59:05;100558.34;;;30.29
61189;BMP280;47054;39.716;2.904;2023-08-21T03:01:50;100544.19;;;30.21
61189;BMP280;47054;39.716;2.904;2023-08-21T03:04:34;100545.25;;;30.24
61189;BMP280;47054;39.716;2.904;2023-08-21T03:07:19;100549.19;;;30.23
61189;BMP280;47054;39.716;2.904;2023-08-21T03:10:03;100546.47;;;30.23
61189;BMP280;47054;39.716;2.904;2023-08-21T03:12:48;100547.69;;;30.22
61189;BMP280;47054;39.716;2.904;2023-08-21T03:15:34;100550.09;;;30.20
61189;BMP280;47054;39.716;2.904;2023-08-21T03:18:19;100541.13;;;30.19
61189;BMP280;47054;39.716;2.904;2023-08-21T03:21:04;100544.78;;;30.16
61189;BMP280;47054;39.716;2.904;2023-08-21T03:23:56;100548.28;;;30.17
61189;BMP280;47054;39.716;2.904;2023-08-21T03:26:41;100544.91;;;30.13
61189;BMP280;47054;39.716;2.904;2023-08-21T03:29:27;100534.72;;;30.04
61189;BMP280;47054;39.716;2.904;2023-08-21T03:32:12;100525.63;;;29.98
61189;BMP280;47054;39.716;2.904;2023-08-21T03:34:57;100538.53;;;30.07
61189;BMP280;47054;39.716;2.904;2023-08-21T03:37:41;100535.47;;;30.05
61189;BMP280;47054;39.716;2.904;2023-08-21T03:40:30;100531.25;;;30.04
61189;BMP280;47054;39.716;2.904;2023-08-21T03:43:14;100530.91;;;30.02
61189;BMP280;47054;39.716;2.904;2023-08-21T03:45:59;100531.78;;;29.99
61189;BMP280;47054;39.716;2.904;2023-08-21T03:48:43;100542.19;;;30.04
61189;BMP280;47054;39.716;2.904;2023-08-21T03:51:28;100537.91;;;30.03
61189;BMP280;47054;39.716;2.904;2023-08-21T03:54:14;100537.63;;;30.01
61189;BMP280;47054;39.716;2.904;2023-08-21T03:56:58;100535.00;;;29.97
61189;BMP280;47054;39.716;2.904;2023-08-21T03:59:43;100537.63;;;30.01
61189;BMP280;47054;39.716;2.904;2023-08-21T04:02:27;100535.91;;;29.94
61189;BMP280;47054;39.716;2.904;2023-08-21T04:05:12;100542.72;;;29.99
61189;BMP280;47054;39.716;2.904;2023-08-21T04:07:56;100545.47;;;29.99
61189;BMP280;47054;39.716;2.904;2023-08-21T04:10:41;100535.00;;;29.97
61189;BMP280;47054;39.716;2.904;2023-08-21T04:13:26;100548.69;;;29.97
61189;BMP280;47054;39.716;2.904;2023-08-21T04:16:11;100543.97;;;29.98
61189;BMP280;47054;39.716;2.904;2023-08-21T04:18:59;100545.19;;;29.97
61189;BMP280;47054;39.716;2.904;2023-08-21T04:21:43;100544.41;;;29.96
61189;BMP280;47054;39.716;2.904;2023-08-21T04:24:27;100543.63;;;29.96
61189;BMP280;47054;39.716;2.904;2023-08-21T04:27:12;100538.66;;;29.94
61189;BMP280;47054;39.716;2.904;2023-08-21T04:29:56;100549.59;;;29.94
61189;BMP280;47054;39.716;2.904;2023-08-21T04:32:41;100550.78;;;29.93
61189;BMP280;47054;39.716;2.904;2023-08-21T04:35:26;100550.47;;;29.91
61189;BMP280;47054;39.716;2.904;2023-08-21T04:38:11;100555.19;;;29.91
61189;BMP280;47054;39.716;2.904;2023-08-21T04:40:56;100552.25;;;29.85
61189;BMP280;47054;39.716;2.904;2023-08-21T04:43:49;100550.28;;;29.86
61189;BMP280;47054;39.716;2.904;2023-08-21T04:46:35;100558.97;;;29.84
61189;BMP280;47054;39.716;2.904;2023-08-21T04:49:20;100560.47;;;29.85
61189;BMP280;47054;39.716;2.904;2023-08-21T04:52:04;100558.22;;;29.84
61189;BMP280;47054;39.716;2.904;2023-08-21T04:54:49;100561.19;;;29.77
61189;BMP280;47054;39.716;2.904;2023-08-21T04:57:34;100562.41;;;29.76
61189;BMP280;47054;39.716;2.904;2023-08-21T05:00:22;100571.69;;;29.78
61189;BMP280;47054;39.716;2.904;2023-08-21T05:03:07;100570.41;;;29.70
61189;BMP280;47054;39.716;2.904;2023-08-21T05:05:56;100585.47;;;29.75
61189;BMP280;47054;39.716;2.904;2023-08-21T05:08:42;100582.44;;;29.73
61189;BMP280;47054;39.716;2.904;2023-08-21T05:11:27;100589.56;;;29.70
61189;BMP280;47054;39.716;2.904;2023-08-21T05:14:12;100587.72;;;29.67
61189;BMP280;47054;39.716;2.904;2023-08-21T05:16:56;100589.22;;;29.68
61189;BMP280;47054;39.716;2.904;2023-08-21T05:19:41;100584.06;;;29.61
61189;BMP280;47054;39.716;2.904;2023-08-21T05:22:25;100589.34;;;29.65
61189;BMP280;47054;39.716;2.904;2023-08-21T05:25:11;100591.03;;;29.62
61189;BMP280;47054;39.716;2.904;2023-08-21T05:27:56;100584.63;;;29.56
61189;BMP280;47054;39.716;2.904;2023-08-21T05:30:41;100589.63;;;29.58
61189;BMP280;47054;39.716;2.904;2023-08-21T05:33:26;100579.84;;;29.48
61189;BMP280;47054;39.716;2.904;2023-08-21T05:36:11;100594.47;;;29.54
61189;BMP280;47054;39.716;2.904;2023-08-21T05:38:57;100594.47;;;29.54
61189;BMP280;47054;39.716;2.904;2023-08-21T05:41:43;100599.19;;;29.53
61189;BMP280;47054;39.716;2.904;2023-08-21T05:44:29;100586.09;;;29.48
61189;BMP280;47054;39.716;2.904;2023-08-21T05:47:15;100597.78;;;29.49
61189;BMP280;47054;39.716;2.904;2023-08-21T05:49:59;100595.34;;;29.51
61189;BMP280;47054;39.716;2.904;2023-08-21T05:52:44;100606.28;;;29.51
61189;BMP280;47054;39.716;2.904;2023-08-21T05:55:28;100599.63;;;29.52
61189;BMP280;47054;39.716;2.904;2023-08-21T05:58:13;100601.16;;;29.53
61189;BMP280;47054;39.716;2.904;2023-08-21T06:00:58;100601.47;;;29.55
61189;BMP280;47054;39.716;2.904;2023-08-21T06:03:44;100606.03;;;29.58
61189;BMP280;47054;39.716;2.904;2023-08-21T06:06:42;100608.31;;;29.59
61189;BMP280;47054;39.716;2.904;2023-08-21T06:09:27;100612.59;;;29.60
61189;BMP280;47054;39.716;2.904;2023-08-21T06:12:14;100615.63;;;29.62
61189;BMP280;47054;39.716;2.904;2023-08-21T06:15:00;100615.94;;;29.64
61189;BMP280;47054;39.716;2.904;2023-08-21T06:17:45;100612.47;;;29.64
61189;BMP280;47054;39.716;2.904;2023-08-21T06:20:29;100623.88;;;29.71
61189;BMP280;47054;39.716;2.904;2023-08-21T06:23:15;100623.75;;;29.75
61189;BMP280;47054;39.716;2.904;2023-08-21T06:26:00;100623.00;;;29.74
61189;BMP280;47054;39.716;2.904;2023-08-21T06:28:45;100635.19;;;29.82
61189;BMP280;47054;39.716;2.904;2023-08-21T06:31:31;100622.75;;;29.81
61189;BMP280;47054;39.716;2.904;2023-08-21T06:34:16;100629.47;;;29.89
61189;BMP280;47054;39.716;2.904;2023-08-21T06:37:01;100626.59;;;29.93
61189;BMP280;47054;39.716;2.904;2023-08-21T06:39:45;100634.22;;;29.98
61189;BMP280;47054;39.716;2.904;2023-08-21T06:42:30;100634.38;;;30.03
61189;BMP280;47054;39.716;2.904;2023-08-21T06:45:16;100637.56;;;30.02
61189;BMP280;47054;39.716;2.904;2023-08-21T06:48:02;100650.84;;;30.12
61189;BMP280;47054;39.716;2.904;2023-08-21T06:50:47;100648.72;;;30.16
61189;BMP280;47054;39.716;2.904;2023-08-21T06:53:31;100645.19;;;30.16
61189;BMP280;47054;39.716;2.904;2023-08-21T06:56:16;100638.25;;;30.24
61189;BMP280;47054;39.716;2.904;2023-08-21T06:59:01;100635.88;;;30.26
61189;BMP280;47054;39.716;2.904;2023-08-21T07:01:46;100639.81;;;30.34
61189;BMP280;47054;39.716;2.904;2023-08-21T07:04:30;100627.81;;;30.31
61189;BMP280;47054;39.716;2.904;2023-08-21T07:07:18;100637.44;;;30.45
61189;BMP280;47054;39.716;2.904;2023-08-21T07:10:03;100646.56;;;30.51
61189;BMP280;47054;39.716;2.904;2023-08-21T07:12:48;100644.16;;;30.53
61189;BMP280;47054;39.716;2.904;2023-08-21T07:15:32;100651.47;;;30.65
61189;BMP280;47054;39.716;2.904;2023-08-21T07:18:17;100655.88;;;30.71
61189;BMP280;47054;39.716;2.904;2023-08-21T07:21:02;100651.34;;;30.77
61189;BMP280;47054;39.716;2.904;2023-08-21T07:23:48;100655.78;;;30.84
61189;BMP280;47054;39.716;2.904;2023-08-21T07:26:33;100655.16;;;30.89
61189;BMP280;47054;39.716;2.904;2023-08-21T07:29:18;100645.28;;;30.92
61189;BMP280;47054;39.716;2.904;2023-08-21T07:32:03;100658.06;;;31.04
61189;BMP280;47054;39.716;2.904;2023-08-21T07:34:52;100653.81;;;31.12
61189;BMP280;47054;39.716;2.904;2023-08-21T07:37:37;100653.94;;;31.17
61189;BMP280;47054;39.716;2.904;2023-08-21T07:40:22;100642.09;;;31.20
61189;BMP280;47054;39.716;2.904;2023-08-21T07:43:07;100655.31;;;31.31
61189;BMP280;47054;39.716;2.904;2023-08-21T07:45:53;100655.00;;;31.38
61189;BMP280;47054;39.716;2.904;2023-08-21T07:48:37;100656.22;;;31.46
61189;BMP280;47054;39.716;2.904;2023-08-21T07:51:22;100654.66;;;31.54
61189;BMP280;47054;39.716;2.904;2023-08-21T07:54:06;100658.59;;;31.62
61189;BMP280;47054;39.716;2.904;2023-08-21T07:56:51;100657.53;;;31.68
61189;BMP280;47054;39.716;2.904;2023-08-21T07:59:35;100657.50;;;31.77
61189;BMP280;47054;39.716;2.904;2023-08-21T08:02:20;100662.19;;;31.86
61189;BMP280;47054;39.716;2.904;2023-08-21T08:05:05;100664.59;;;31.93
61189;BMP280;47054;39.716;2.904;2023-08-21T08:07:50;100649.19;;;31.95
61189;BMP280;47054;39.716;2.904;2023-08-21T08:10:39;100664.22;;;32.09
61189;BMP280;47054;39.716;2.904;2023-08-21T08:13:24;100663.59;;;32.14
61189;BMP280;47054;39.716;2.904;2023-08-21T08:16:08;100662.81;;;32.22
61189;BMP280;47054;39.716;2.904;2023-08-21T08:18:53;100665.69;;;32.28
61189;BMP280;47054;39.716;2.904;2023-08-21T08:21:38;100662.56;;;32.35
61189;BMP280;47054;39.716;2.904;2023-08-21T08:24:23;100664.22;;;32.41
61189;BMP280;47054;39.716;2.904;2023-08-21T08:27:08;100660.69;;;32.50
61189;BMP280;47054;39.716;2.904;2023-08-21T08:29:52;100659.09;;;32.58
61189;BMP280;47054;39.716;2.904;2023-08-21T08:32:37;100656.47;;;32.63
61189;BMP280;47054;39.716;2.904;2023-08-21T08:35:21;100655.63;;;32.72
61189;BMP280;47054;39.716;2.904;2023-08-21T08:38:06;100655.75;;;32.78
61189;BMP280;47054;39.716;2.904;2023-08-21T08:40:53;100657.94;;;32.88
61189;BMP280;47054;39.716;2.904;2023-08-21T08:43:40;100642.81;;;32.93
61189;BMP280;47054;39.716;2.904;2023-08-21T08:46:25;100646.88;;;32.97
61189;BMP280;47054;39.716;2.904;2023-08-21T08:49:11;100646.81;;;33.06
61189;BMP280;47054;39.716;2.904;2023-08-21T08:51:57;100636.13;;;33.08
61189;BMP280;47054;39.716;2.904;2023-08-21T08:54:42;100645.03;;;33.18
61189;BMP280;47054;39.716;2.904;2023-08-21T08:57:26;100648.16;;;33.25
61189;BMP280;47054;39.716;2.904;2023-08-21T09:00:11;100652.03;;;33.33
61189;BMP280;47054;39.716;2.904;2023-08-21T09:02:56;100644.38;;;33.37
61189;BMP280;47054;39.716;2.904;2023-08-21T09:05:41;100645.03;;;33.47
61189;BMP280;47054;39.716;2.904;2023-08-21T18:43:43;100467.47;;;34.71
61189;BMP280;47054;39.716;2.904;2023-08-21T18:46:28;100475.91;;;34.99
61189;BMP280;47054;39.716;2.904;2023-08-21T18:49:13;100470.06;;;35.17
61189;BMP280;47054;39.716;2.904;2023-08-21T18:51:58;100474.38;;;35.29
61189;BMP280;47054;39.716;2.904;2023-08-21T18:54:42;100480.72;;;35.41
61189;BMP280;47054;39.716;2.904;2023-08-21T18:57:27;100485.00;;;35.47
61189;BMP280;47054;39.716;2.904;2023-08-21T19:00:13;100483.50;;;35.52
61189;BMP280;47054;39.716;2.904;2023-08-21T19:03:00;100491.28;;;35.53
61189;BMP280;47054;39.716;2.904;2023-08-21T19:05:44;100489.56;;;35.56
61189;BMP280;47054;39.716;2.904;2023-08-21T19:08:29;100493.81;;;35.57
61189;BMP280;47054;39.716;2.904;2023-08-21T19:11:13;100491.81;;;35.57
61189;BMP280;47054;39.716;2.904;2023-08-21T19:13:59;100489.31;;;35.54
61189;BMP280;47054;39.716;2.904;2023-08-21T19:16:45;100491.56;;;35.55
61189;BMP280;47054;39.716;2.904;2023-08-21T19:19:31;100494.56;;;35.52
61189;BMP280;47054;39.716;2.904;2023-08-21T19:22:16;100494.31;;;35.50
61189;BMP280;47054;39.716;2.904;2023-08-21T19:25:02;100504.28;;;35.47
61189;BMP280;47054;39.716;2.904;2023-08-21T19:27:48;100501.25;;;35.40
61189;BMP280;47054;39.716;2.904;2023-08-21T19:30:35;100507.78;;;35.42
61189;BMP280;47054;39.716;2.904;2023-08-21T19:33:20;100510.03;;;35.38
61189;BMP280;47054;39.716;2.904;2023-08-21T19:36:14;100518.78;;;35.37
61189;BMP280;47054;39.716;2.904;2023-08-21T19:38:59;100523.28;;;35.34
61189;BMP280;47054;39.716;2.904;2023-08-21T19:41:43;100520.00;;;35.30
61189;BMP280;47054;39.716;2.904;2023-08-21T19:44:30;100522.50;;;35.28
61189;BMP280;47054;39.716;2.904;2023-08-21T19:47:15;100523.97;;;35.24
61189;BMP280;47054;39.716;2.904;2023-08-21T19:50:01;100521.44;;;35.20
61189;BMP280;47054;39.716;2.904;2023-08-21T19:52:45;100517.91;;;35.14
61189;BMP280;47054;39.716;2.904;2023-08-21T19:55:30;100520.13;;;35.10
61189;BMP280;47054;39.716;2.904;2023-08-21T19:58:15;100516.56;;;35.04
61189;BMP280;47054;39.716;2.904;2023-08-21T20:01:05;100525.84;;;35.06
61189;BMP280;47054;39.716;2.904;2023-08-21T20:03:51;100523.31;;;35.03
61189;BMP280;47054;39.716;2.904;2023-08-21T20:06:36;100526.03;;;34.97
61189;BMP280;47054;39.716;2.904;2023-08-21T20:09:21;100522.25;;;34.95
61189;BMP280;47054;39.716;2.904;2023-08-21T20:12:06;100524.19;;;34.89
61189;BMP280;47054;39.716;2.904;2023-08-21T20:14:50;100527.72;;;34.89
61189;BMP280;47054;39.716;2.904;2023-08-21T20:17:36;100533.22;;;34.84
61189;BMP280;47054;39.716;2.904;2023-08-21T20:20:20;100528.66;;;34.81
61189;BMP280;47054;39.716;2.904;2023-08-21T20:23:07;100535.91;;;34.78
61189;BMP280;47054;39.716;2.904;2023-08-21T20:25:52;100531.09;;;34.73
61189;BMP280;47054;39.716;2.904;2023-08-21T20:28:37;100529.28;;;34.70
61189;BMP280;47054;39.716;2.904;2023-08-21T20:31:24;100527.00;;;34.63
61189;BMP280;47054;39.716;2.904;2023-08-21T20:34:10;100533.19;;;34.58
61189;BMP280;47054;39.716;2.904;2023-08-21T20:36:54;100532.66;;;34.54
61189;BMP280;47054;39.716;2.904;2023-08-21T20:39:38;100527.34;;;34.51
61189;BMP280;47054;39.716;2.904;2023-08-21T20:42:23;100526.81;;;34.47
61189;BMP280;47054;39.716;2.904;2023-08-21T20:45:08;100512.75;;;34.39
61189;BMP280;47054;39.716;2.904;2023-08-21T20:47:54;100508.13;;;34.31
61189;BMP280;47054;39.716;2.904;2023-08-21T20:50:38;100522.84;;;34.28
61189;BMP280;47054;39.716;2.904;2023-08-21T20:53:24;100524.09;;;34.27
61189;BMP280;47054;39.716;2.904;2023-08-21T20:56:09;100527.56;;;34.22
61189;BMP280;47054;39.716;2.904;2023-08-21T20:58:54;100521.00;;;34.19
61189;BMP280;47054;39.716;2.904;2023-08-21T21:01:39;100523.25;;;34.15
61189;BMP280;47054;39.716;2.904;2023-08-21T21:04:24;100517.19;;;34.11
61189;BMP280;47054;39.716;2.904;2023-08-21T21:07:09;100517.41;;;34.08
61189;BMP280;47054;39.716;2.904;2023-08-21T21:09:55;100518.34;;;34.05
61189;BMP280;47054;39.716;2.904;2023-08-21T21:12:39;100509.00;;;33.97
61189;BMP280;47054;39.716;2.904;2023-08-21T21:15:24;100498.84;;;33.88
61189;BMP280;47054;39.716;2.904;2023-08-21T21:18:09;100514.13;;;33.89
61189;BMP280;47054;39.716;2.904;2023-08-21T21:20:57;100506.06;;;33.86
61189;BMP280;47054;39.716;2.904;2023-08-21T21:23:41;100502.00;;;33.81
61189;BMP280;47054;39.716;2.904;2023-08-21T21:26:26;100510.50;;;33.78
61189;BMP280;47054;39.716;2.904;2023-08-21T21:29:10;100502.16;;;33.72
61189;BMP280;47054;39.716;2.904;2023-08-21T21:31:55;100506.91;;;33.72
61189;BMP280;47054;39.716;2.904;2023-08-21T21:34:40;100511.84;;;33.68
61189;BMP280;47054;39.716;2.904;2023-08-21T21:37:25;100514.81;;;33.64
61189;BMP280;47054;39.716;2.904;2023-08-21T21:40:09;100515.50;;;33.59
61189;BMP280;47054;39.716;2.904;2023-08-21T21:42:55;100512.94;;;33.56
61189;BMP280;47054;39.716;2.904;2023-08-21T21:45:39;100510.09;;;33.50
61189;BMP280;47054;39.716;2.904;2023-08-21T21:48:27;100512.31;;;33.46
61189;BMP280;47054;39.716;2.904;2023-08-21T21:51:12;100512.53;;;33.43
61189;BMP280;47054;39.716;2.904;2023-08-21T21:53:56;100509.19;;;33.39
61189;BMP280;47054;39.716;2.904;2023-08-21T21:56:41;100514.41;;;33.37
61189;BMP280;47054;39.716;2.904;2023-08-21T21:59:26;100515.34;;;33.34
61189;BMP280;47054;39.716;2.904;2023-08-21T22:02:10;100507.50;;;33.27
61189;BMP280;47054;39.716;2.904;2023-08-21T22:04:55;100511.75;;;33.28
61189;BMP280;47054;39.716;2.904;2023-08-21T22:07:39;100510.44;;;33.23
61189;BMP280;47054;39.716;2.904;2023-08-21T22:10:24;100508.09;;;33.16
61189;BMP280;47054;39.716;2.904;2023-08-21T22:13:09;100509.72;;;33.08
61189;BMP280;47054;39.716;2.904;2023-08-21T22:15:54;100499.56;;;33.00
61189;BMP280;47054;39.716;2.904;2023-08-21T22:18:39;100496.75;;;32.94
61189;BMP280;47054;39.716;2.904;2023-08-21T22:21:24;100495.31;;;32.84
61189;BMP280;47054;39.716;2.904;2023-08-21T22:24:08;100501.47;;;32.79
61189;BMP280;47054;39.716;2.904;2023-08-21T22:26:53;100501.84;;;32.72
61189;BMP280;47054;39.716;2.904;2023-08-21T22:29:37;100508.19;;;32.63
61189;BMP280;47054;39.716;2.904;2023-08-21T22:32:22;100500.53;;;32.53
61189;BMP280;47054;39.716;2.904;2023-08-21T22:35:07;100505.50;;;32.40
61189;BMP280;47054;39.716;2.904;2023-08-21T22:37:52;100507.38;;;32.34
61189;BMP280;47054;39.716;2.904;2023-08-21T22:40:36;100492.38;;;32.20
61189;BMP280;47054;39.716;2.904;2023-08-21T22:43:21;100501.38;;;32.21
61189;BMP280;47054;39.716;2.904;2023-08-21T22:46:05;100498.97;;;32.14
61189;BMP280;47054;39.716;2.904;2023-08-21T22:48:50;100495.09;;;32.06
61189;BMP280;47054;39.716;2.904;2023-08-21T22:51:37;100489.66;;;31.97
61189;BMP280;47054;39.716;2.904;2023-08-21T22:54:22;100506.13;;;31.97
61189;BMP280;47054;39.716;2.904;2023-08-21T22:57:06;100500.22;;;31.89
61189;BMP280;47054;39.716;2.904;2023-08-21T22:59:51;100508.03;;;31.82
61189;BMP280;47054;39.716;2.904;2023-08-21T23:02:35;100501.94;;;31.78
61189;BMP280;47054;39.716;2.904;2023-08-21T23:05:20;100505.91;;;31.77
61189;BMP280;47054;39.716;2.904;2023-08-21T23:08:06;100506.09;;;31.73
61189;BMP280;47054;39.716;2.904;2023-08-21T23:10:51;100507.81;;;31.71
61189;BMP280;47054;39.716;2.904;2023-08-21T23:13:35;100500.78;;;31.70
61189;BMP280;47054;39.716;2.904;2023-08-21T23:16:20;100504.28;;;31.70
61189;BMP280;47054;39.716;2.904;2023-08-21T23:19:05;100493.75;;;31.69
61189;BMP280;47054;39.716;2.904;2023-08-21T23:21:50;100487.53;;;31.68
61189;BMP280;47054;39.716;2.904;2023-08-21T23:24:34;100494.09;;;31.71
61189;BMP280;47054;39.716;2.904;2023-08-21T23:27:19;100502.31;;;31.71
61189;BMP280;47054;39.716;2.904;2023-08-21T23:30:03;100493.31;;;31.70
61189;BMP280;47054;39.716;2.904;2023-08-21T23:32:48;100503.78;;;31.72
61189;BMP280;47054;39.716;2.904;2023-08-21T23:35:37;100494.38;;;31.73
61189;BMP280;47054;39.716;2.904;2023-08-21T23:38:23;100501.53;;;31.70
61189;BMP280;47054;39.716;2.904;2023-08-21T23:41:07;100504.28;;;31.70
61189;BMP280;47054;39.716;2.904;2023-08-21T23:43:52;100503.53;;;31.70
61189;BMP280;47054;39.716;2.904;2023-08-21T23:46:37;100500.78;;;31.70
61189;BMP280;47054;39.716;2.904;2023-08-21T23:49:21;100491.09;;;31.60
61189;BMP280;47054;39.716;2.904;2023-08-21T23:52:05;100506.41;;;31.66
61189;BMP280;47054;39.716;2.904;2023-08-21T23:54:50;100505.38;;;31.64
61189;BMP280;47054;39.716;2.904;2023-08-21T23:57:34;100505.38;;;31.64
